This is the latest recevied weather packets stored in our database for station/object KO4LCK. If no packets are shown the sender has not sent any weather packets the latest 10 day(s).
| Time | Temp. | Humidity | Pressure | Rain* | Wind** | Luminosity | Snow |
|---|---|---|---|---|---|---|---|
| 1777671189 | 20° C | 52% | 1013.5 hPa | 0 mm | - | 173 W/m² | - |
| 1777670885 | 20.56° C | 51% | 1013.8 hPa | 0 mm | - | 183 W/m² | - |
| 1777670581 | 20.56° C | 57% | 1013.9 hPa | 0 mm | - | 197 W/m² | - |
| 1777670279 | 20.56° C | 52% | 1013.8 hPa | 0 mm | - | 230 W/m² | - |
| 1777669976 | 20.56° C | 51% | 1013.7 hPa | 0 mm | - | 224 W/m² | - |
| 1777669673 | 20.56° C | 51% | 1013.7 hPa | 0 mm | - | 208 W/m² | - |
| 1777669369 | 21.11° C | 49% | 1013.9 hPa | 0 mm | - | 203 W/m² | - |
| 1777669066 | 21.67° C | 50% | 1014 hPa | 0 mm | - | 228 W/m² | - |
| 1777668763 | 21.11° C | 52% | 1014 hPa | 0 mm | - | 329 W/m² | - |
| 1777668460 | 21.11° C | 53% | 1014 hPa | 0 mm | - | 353 W/m² | - |
| 1777668157 | 20.56° C | 49% | 1014.1 hPa | 0 mm | - | 294 W/m² | - |
| 1777667853 | 20.56° C | 50% | 1014.3 hPa | 0 mm | - | 307 W/m² | - |
| 1777667550 | 20.56° C | 50% | 1014.4 hPa | 0 mm | - | 293 W/m² | - |
| 1777667247 | 20.56° C | 50% | 1014.5 hPa | 0 mm | - | 290 W/m² | - |
| 1777666944 | 20.56° C | 50% | 1014.5 hPa | 0 mm | - | 283 W/m² | - |
| 1777666641 | 21.11° C | 49% | 1014.7 hPa | 0 mm | - | 276 W/m² | - |
| 1777666338 | 20.56° C | 51% | 1014.6 hPa | 0 mm | - | 387 W/m² | - |
| 1777666035 | 20.56° C | 53% | 1014.8 hPa | 0 mm | - | 462 W/m² | - |
| 1777665732 | 20.56° C | 52% | 1014.9 hPa | 0 mm | - | 422 W/m² | - |
| 1777665429 | 20.56° C | 54% | 1015 hPa | 0 mm | - | 386 W/m² | - |
| 1777665125 | 20° C | 56% | 1014.9 hPa | 0 mm | - | 284 W/m² | - |
| 1777664821 | 20° C | 56% | 1014.9 hPa | 0 mm | - | 240 W/m² | - |
| 1777664516 | 20° C | 55% | 1014.8 hPa | 0 mm | - | 224 W/m² | - |
| 1777664214 | 20.56° C | 57% | 1014.9 hPa | 0 mm | - | 176 W/m² | - |
| 1777663912 | 20.56° C | 54% | 1014.9 hPa | 0 mm | - | 225 W/m² | - |
* Rain latest hour (hover to see other rain measurements)
** Current wind speed in m/s (hover to see current wind gust speed)